createdAt,value
2022-08-03T00:00:45.227Z,17.20
2022-08-03T00:01:45.220Z,17.23
2022-08-03T00:02:45.255Z,17.19
2022-08-03T00:03:45.192Z,17.20
2022-08-03T00:04:45.171Z,17.22
2022-08-03T00:06:04.841Z,17.19
2022-08-03T00:06:45.141Z,17.19
2022-08-03T00:07:45.129Z,17.19
2022-08-03T00:08:45.120Z,17.12
2022-08-03T00:09:45.110Z,17.17
2022-08-03T00:10:45.093Z,17.17
2022-08-03T00:11:45.077Z,17.17
2022-08-03T00:12:45.067Z,17.13
2022-08-03T00:13:45.052Z,17.07
2022-08-03T00:14:45.043Z,17.09
2022-08-03T00:15:45.053Z,17.09
2022-08-03T00:16:45.029Z,17.09
2022-08-03T00:17:53.493Z,17.10
2022-08-03T00:18:44.987Z,17.07
2022-08-03T00:19:44.975Z,17.09
2022-08-03T00:20:44.967Z,17.14
2022-08-03T00:21:44.947Z,17.14
2022-08-03T00:22:44.941Z,17.10
2022-08-03T00:23:51.570Z,17.02
2022-08-03T00:24:44.908Z,17.07
2022-08-03T00:25:44.896Z,16.98
2022-08-03T00:26:44.881Z,17.09
2022-08-03T00:27:44.875Z,17.12
2022-08-03T00:28:44.857Z,17.09
2022-08-03T00:29:59.623Z,17.01
2022-08-03T00:30:44.828Z,16.98
2022-08-03T00:31:52.608Z,16.99
2022-08-03T00:32:45.329Z,16.92
2022-08-03T00:33:59.008Z,16.98
2022-08-03T00:34:57.669Z,16.87
2022-08-03T00:35:50.125Z,16.87
2022-08-03T00:36:44.750Z,16.89
2022-08-03T00:37:44.742Z,16.99
2022-08-03T00:38:44.727Z,16.94
2022-08-03T00:39:44.711Z,16.94
2022-08-03T00:40:44.705Z,16.94
2022-08-03T00:41:44.684Z,16.91
2022-08-03T00:42:44.680Z,16.86
2022-08-03T00:43:44.659Z,16.84
2022-08-03T00:44:44.642Z,16.80
2022-08-03T00:45:44.635Z,16.86
2022-08-03T00:46:44.618Z,16.77
2022-08-03T00:47:44.605Z,16.80
2022-08-03T00:48:44.592Z,16.74
2022-08-03T00:49:44.576Z,16.79
2022-08-03T00:50:44.573Z,16.77
2022-08-03T00:51:44.552Z,16.74
2022-08-03T00:52:44.539Z,16.73
2022-08-03T00:53:44.535Z,16.72
2022-08-03T00:54:44.513Z,16.74
2022-08-03T00:55:44.507Z,16.72
2022-08-03T00:56:59.654Z,16.65
2022-08-03T00:57:44.473Z,16.72
2022-08-03T00:58:44.457Z,16.64
2022-08-03T00:59:44.455Z,16.62
2022-08-03T01:00:44.434Z,16.59
2022-08-03T01:01:44.462Z,16.64
2022-08-03T01:02:44.409Z,16.64
2022-08-03T01:03:44.394Z,16.65
2022-08-03T01:04:44.378Z,16.64
2022-08-03T01:05:44.365Z,16.61
2022-08-03T01:06:44.351Z,16.65
2022-08-03T01:07:44.339Z,16.61
2022-08-03T01:08:44.336Z,16.58
2022-08-03T01:09:44.315Z,16.61
2022-08-03T01:10:44.300Z,16.49
2022-08-03T01:11:59.787Z,16.55
2022-08-03T01:12:44.276Z,16.55
2022-08-03T01:14:03.958Z,16.46
2022-08-03T01:14:44.245Z,16.50
2022-08-03T01:15:44.232Z,16.50
2022-08-03T01:16:44.216Z,16.46
2022-08-03T01:17:44.209Z,16.43
2022-08-03T01:18:44.191Z,16.54
2022-08-03T01:19:44.177Z,16.43
2022-08-03T01:20:44.163Z,16.44
2022-08-03T01:21:44.152Z,16.51
2022-08-03T01:22:44.136Z,16.47
2022-08-03T01:23:44.127Z,16.47
2022-08-03T01:24:44.161Z,16.46
2022-08-03T01:25:44.103Z,16.43
2022-08-03T01:26:44.085Z,16.44
2022-08-03T01:27:44.070Z,16.43
2022-08-03T01:28:44.058Z,16.46
2022-08-03T01:29:44.043Z,16.44
2022-08-03T01:30:44.033Z,16.46
2022-08-03T01:32:51.810Z,16.41
2022-08-03T01:33:02.476Z,16.41
2022-08-03T01:33:43.990Z,16.41
2022-08-03T01:34:43.976Z,16.41
2022-08-03T01:35:43.961Z,16.41
2022-08-03T01:36:43.946Z,16.43
2022-08-03T01:37:43.939Z,16.47
2022-08-03T01:38:43.923Z,16.43
2022-08-03T01:39:43.908Z,16.40
2022-08-03T01:40:43.893Z,16.43
2022-08-03T01:41:43.880Z,16.40
2022-08-03T01:42:43.872Z,16.47
2022-08-03T01:44:28.057Z,16.47
2022-08-03T01:44:43.866Z,16.46
2022-08-03T01:45:43.831Z,16.46
2022-08-03T01:46:48.829Z,16.39
2022-08-03T01:47:52.482Z,16.31
2022-08-03T01:49:49.374Z,16.34
2022-08-03T01:50:49.231Z,16.34
2022-08-03T01:51:57.956Z,16.31
2022-08-03T01:52:49.211Z,16.28
2022-08-03T01:53:49.191Z,16.36
2022-08-03T01:54:49.181Z,16.39
2022-08-03T01:55:49.162Z,16.39
2022-08-03T01:56:49.150Z,16.29
2022-08-03T01:58:05.469Z,16.39
2022-08-03T01:58:49.123Z,16.31
2022-08-03T01:59:49.109Z,16.29
2022-08-03T02:00:49.151Z,16.28
2022-08-03T02:02:29.075Z,16.24
2022-08-03T02:02:49.103Z,16.21
2022-08-03T02:04:00.573Z,16.17
2022-08-03T02:04:49.046Z,16.24
2022-08-03T02:05:54.133Z,16.22
2022-08-03T02:07:01.100Z,16.21
2022-08-03T02:07:48.999Z,16.25
2022-08-03T02:08:48.993Z,16.17
2022-08-03T02:09:48.978Z,16.21
2022-08-03T02:10:48.962Z,16.25
2022-08-03T02:11:48.946Z,16.16
2022-08-03T02:12:51.128Z,16.10
2022-08-03T02:13:48.920Z,16.22
2022-08-03T02:14:48.909Z,16.10
2022-08-03T02:15:48.894Z,16.22
2022-08-03T02:16:48.884Z,16.10
2022-08-03T02:17:48.862Z,16.09
2022-08-03T02:18:48.851Z,16.12
2022-08-03T02:19:48.837Z,16.12
2022-08-03T02:20:48.822Z,16.10
2022-08-03T02:21:57.006Z,16.12
2022-08-03T02:22:48.802Z,16.12
2022-08-03T02:23:48.779Z,16.05
2022-08-03T02:24:51.152Z,16.08
2022-08-03T02:25:48.760Z,16.10
2022-08-03T02:26:48.745Z,16.05
2022-08-03T02:27:48.731Z,16.05
2022-08-03T02:28:48.715Z,16.06
2022-08-03T02:29:48.701Z,15.99
2022-08-03T02:30:53.713Z,16.02
2022-08-03T02:31:48.693Z,16.00
2022-08-03T02:32:48.658Z,16.03
2022-08-03T02:33:48.653Z,15.99
2022-08-03T02:34:48.634Z,15.99
2022-08-03T02:35:48.621Z,15.96
2022-08-03T02:36:48.607Z,15.96
2022-08-03T02:37:49.546Z,16.00
2022-08-03T02:38:48.577Z,15.92
2022-08-03T02:39:48.567Z,15.91
2022-08-03T02:40:48.551Z,15.91
2022-08-03T02:41:48.540Z,15.94
2022-08-03T02:42:48.524Z,15.92
2022-08-03T02:44:06.255Z,15.91
2022-08-03T02:44:48.507Z,15.91
2022-08-03T02:45:48.488Z,15.88
2022-08-03T02:46:48.471Z,15.81
2022-08-03T02:47:54.516Z,15.87
2022-08-03T02:48:48.441Z,15.88
2022-08-03T02:49:51.414Z,15.88
2022-08-03T02:50:48.416Z,15.85
2022-08-03T02:51:48.402Z,15.85
2022-08-03T02:52:48.387Z,15.88
2022-08-03T02:53:48.372Z,15.85
2022-08-03T02:54:48.366Z,15.88
2022-08-03T02:55:48.345Z,15.88
2022-08-03T02:56:48.334Z,15.84
2022-08-03T02:57:48.318Z,15.75
2022-08-03T02:58:48.304Z,15.88
2022-08-03T02:59:48.292Z,15.81
2022-08-03T03:00:48.308Z,15.81
2022-08-03T03:01:48.266Z,15.90
2022-08-03T03:02:48.253Z,15.84
2022-08-03T03:03:48.237Z,15.84
2022-08-03T03:05:53.533Z,15.90
2022-08-03T03:05:55.712Z,15.90
2022-08-03T03:06:48.196Z,15.88
2022-08-03T03:07:52.053Z,15.85
2022-08-03T03:08:48.167Z,15.91
2022-08-03T03:09:48.150Z,15.88
2022-08-03T03:10:48.139Z,15.88
2022-08-03T03:11:48.126Z,15.87
2022-08-03T03:12:48.116Z,15.88
2022-08-03T03:13:48.098Z,15.81
2022-08-03T03:14:48.083Z,15.90
2022-08-03T03:15:48.071Z,15.87
2022-08-03T03:16:48.059Z,15.88
2022-08-03T03:17:48.045Z,15.84
2022-08-03T03:18:48.032Z,15.85
2022-08-03T03:19:48.015Z,15.75
2022-08-03T03:20:48.002Z,15.81
2022-08-03T03:21:47.989Z,15.73
2022-08-03T03:22:47.982Z,15.73
2022-08-03T03:23:47.990Z,15.76
2022-08-03T03:24:47.947Z,15.76
2022-08-03T03:25:47.931Z,15.66
2022-08-03T03:26:47.922Z,15.66
2022-08-03T03:27:50.787Z,15.70
2022-08-03T03:28:47.894Z,15.72
2022-08-03T03:29:47.883Z,15.69
2022-08-03T03:30:53.170Z,15.69
2022-08-03T03:31:47.851Z,15.70
2022-08-03T03:32:47.836Z,15.72
2022-08-03T03:33:47.821Z,15.69
2022-08-03T03:34:47.810Z,15.67
2022-08-03T03:35:47.793Z,15.70
2022-08-03T03:36:47.786Z,15.72
2022-08-03T03:37:47.776Z,15.63
2022-08-03T03:38:47.757Z,15.60
2022-08-03T03:39:47.741Z,15.67
2022-08-03T03:40:47.731Z,15.63
2022-08-03T03:41:47.714Z,15.55
2022-08-03T03:42:47.699Z,15.57
2022-08-03T03:43:47.693Z,15.55
2022-08-03T03:44:47.674Z,15.63
2022-08-03T03:45:47.655Z,15.55
2022-08-03T03:46:47.647Z,15.55
2022-08-03T03:47:47.628Z,15.51
2022-08-03T03:48:47.616Z,15.59
2022-08-03T03:49:47.602Z,15.52
2022-08-03T03:50:47.590Z,15.57
2022-08-03T03:51:47.575Z,15.62
2022-08-03T03:52:47.561Z,15.57
2022-08-03T03:53:47.545Z,15.52
2022-08-03T03:54:47.534Z,15.54
2022-08-03T03:56:01.191Z,15.50
2022-08-03T03:56:47.503Z,15.57
2022-08-03T03:57:47.492Z,15.52
2022-08-03T03:58:47.477Z,15.50
2022-08-03T03:59:47.461Z,15.50
2022-08-03T04:00:47.521Z,15.50
2022-08-03T04:01:47.434Z,15.55
2022-08-03T04:02:47.420Z,15.48
2022-08-03T04:03:47.406Z,15.52
2022-08-03T04:04:47.393Z,15.48
2022-08-03T04:05:47.386Z,15.47
2022-08-03T04:06:47.365Z,15.47
2022-08-03T04:07:47.354Z,15.47
2022-08-03T04:08:47.340Z,15.48
2022-08-03T04:09:47.324Z,15.45
2022-08-03T04:10:47.311Z,15.47
2022-08-03T04:11:47.303Z,15.48
2022-08-03T04:12:49.966Z,15.48
2022-08-03T04:13:47.268Z,15.39
2022-08-03T04:14:47.265Z,15.45
2022-08-03T04:15:47.238Z,15.45
2022-08-03T04:16:47.226Z,15.43
2022-08-03T04:17:47.209Z,15.47
2022-08-03T04:18:47.200Z,15.45
2022-08-03T04:19:47.183Z,15.43
2022-08-03T04:20:47.659Z,15.48
2022-08-03T04:21:47.156Z,15.48
2022-08-03T04:22:47.145Z,15.47
2022-08-03T04:23:47.127Z,15.43
2022-08-03T04:24:47.116Z,15.45
2022-08-03T04:25:47.103Z,15.45
2022-08-03T04:26:50.932Z,15.45
2022-08-03T04:27:47.073Z,15.45
2022-08-03T04:28:47.059Z,15.48
2022-08-03T04:29:48.478Z,15.47
2022-08-03T04:30:47.031Z,15.51
2022-08-03T04:31:47.017Z,15.44
2022-08-03T04:32:47.002Z,15.52
2022-08-03T04:33:46.990Z,15.45
2022-08-03T04:34:46.982Z,15.43
2022-08-03T04:36:01.375Z,15.47
2022-08-03T04:36:46.953Z,15.55
2022-08-03T04:37:46.933Z,15.55
2022-08-03T04:38:46.930Z,15.50
2022-08-03T04:39:46.910Z,15.50
2022-08-03T04:40:46.891Z,15.55
2022-08-03T04:42:07.244Z,15.52
2022-08-03T04:42:46.872Z,15.52
2022-08-03T04:43:46.850Z,15.59
2022-08-03T04:44:46.842Z,15.60
2022-08-03T04:45:46.821Z,15.55
2022-08-03T04:46:46.824Z,15.57
2022-08-03T04:47:46.793Z,15.69
2022-08-03T04:48:46.783Z,15.69
2022-08-03T04:49:46.766Z,15.67
2022-08-03T04:50:46.757Z,15.75
2022-08-03T04:51:46.743Z,15.85
2022-08-03T04:52:46.728Z,15.75
2022-08-03T04:53:46.715Z,15.90
2022-08-03T04:54:50.655Z,15.94
2022-08-03T04:55:46.689Z,15.88
2022-08-03T04:56:46.669Z,15.90
2022-08-03T04:57:46.659Z,15.98
2022-08-03T04:58:46.645Z,15.96
2022-08-03T04:59:46.632Z,15.98
2022-08-03T05:00:46.619Z,16.08
2022-08-03T05:01:46.673Z,16.06
2022-08-03T05:02:46.593Z,16.12
2022-08-03T05:03:46.572Z,16.21
2022-08-03T05:04:46.569Z,16.24
2022-08-03T05:05:49.865Z,16.24
2022-08-03T05:06:48.390Z,16.31
2022-08-03T05:07:46.519Z,16.34
2022-08-03T05:08:47.141Z,16.41
2022-08-03T05:09:50.636Z,16.46
2022-08-03T05:10:46.479Z,16.47
2022-08-03T05:11:46.476Z,16.58
2022-08-03T05:12:46.469Z,16.65
2022-08-03T05:13:46.439Z,16.65
2022-08-03T05:14:46.427Z,16.73
2022-08-03T05:15:46.411Z,16.74
2022-08-03T05:16:46.399Z,16.80
2022-08-03T05:17:46.383Z,16.89
2022-08-03T05:18:46.376Z,16.94
2022-08-03T05:19:46.363Z,17.05
2022-08-03T05:20:46.365Z,17.02
2022-08-03T05:21:52.526Z,17.12
2022-08-03T05:22:46.317Z,17.19
2022-08-03T05:23:46.302Z,17.30
2022-08-03T05:24:46.287Z,17.35
2022-08-03T05:25:49.692Z,17.49
2022-08-03T05:26:46.265Z,17.59
2022-08-03T05:27:46.263Z,17.57
2022-08-03T05:28:50.863Z,17.71
2022-08-03T05:29:46.222Z,17.86
2022-08-03T05:30:46.211Z,17.88
2022-08-03T05:31:46.198Z,17.97
2022-08-03T05:32:46.187Z,18.03
2022-08-03T05:33:46.169Z,18.18
2022-08-03T05:34:46.165Z,18.31
2022-08-03T05:35:57.301Z,18.42
2022-08-03T05:36:46.130Z,18.48
2022-08-03T05:37:54.864Z,18.57
2022-08-03T05:38:46.109Z,18.63
2022-08-03T05:39:46.098Z,18.71
2022-08-03T05:40:56.991Z,18.79
2022-08-03T05:41:46.077Z,18.94
2022-08-03T05:42:46.054Z,19.00
2022-08-03T05:43:46.039Z,19.15
2022-08-03T05:44:46.027Z,19.19
2022-08-03T05:45:46.021Z,19.32
2022-08-03T05:46:46.006Z,19.38
2022-08-03T05:47:45.994Z,19.41
2022-08-03T05:48:45.975Z,19.49
2022-08-03T05:49:45.968Z,19.59
2022-08-03T05:50:45.958Z,19.64
2022-08-03T05:51:45.942Z,19.75
2022-08-03T05:52:45.946Z,19.85
2022-08-03T05:53:45.922Z,19.96
2022-08-03T05:54:56.988Z,20.11
2022-08-03T05:55:45.893Z,20.14
2022-08-03T05:56:45.883Z,20.21
2022-08-03T05:57:45.875Z,20.17
2022-08-03T05:58:45.858Z,20.30
2022-08-03T05:59:56.396Z,20.39
2022-08-03T06:00:45.831Z,20.48
2022-08-03T06:01:45.859Z,20.44
2022-08-03T06:02:45.811Z,20.44
2022-08-03T06:03:45.800Z,20.55
2022-08-03T06:04:45.785Z,20.66
2022-08-03T06:06:00.201Z,20.53
2022-08-03T06:06:45.761Z,20.53
2022-08-03T06:07:45.745Z,20.67
2022-08-03T06:08:45.735Z,20.83
2022-08-03T06:10:34.447Z,20.74
2022-08-03T06:10:45.712Z,20.77
2022-08-03T06:11:46.039Z,20.80
2022-08-03T06:12:45.686Z,20.90
2022-08-03T06:13:45.677Z,20.83
2022-08-03T06:14:45.666Z,20.86
2022-08-03T06:15:45.653Z,20.92
2022-08-03T06:16:45.641Z,21.01
2022-08-03T06:17:45.635Z,21.01
2022-08-03T06:18:45.632Z,21.03
2022-08-03T06:19:45.610Z,21.11
2022-08-03T06:20:45.597Z,21.14
2022-08-03T06:21:45.602Z,21.22
2022-08-03T06:22:51.056Z,21.26
2022-08-03T06:23:53.034Z,21.38
2022-08-03T06:24:53.451Z,21.40
2022-08-03T06:25:45.537Z,21.56
2022-08-03T06:26:45.527Z,21.63
2022-08-03T06:27:45.513Z,21.70
2022-08-03T06:28:53.054Z,21.77
2022-08-03T06:29:45.494Z,21.77
2022-08-03T06:30:45.481Z,21.97
2022-08-03T06:31:45.469Z,22.01
2022-08-03T06:32:51.696Z,22.12
2022-08-03T06:34:30.489Z,22.19
2022-08-03T06:34:45.437Z,22.25
2022-08-03T06:35:45.442Z,22.36
2022-08-03T06:36:45.412Z,22.47
2022-08-03T06:37:45.400Z,22.49
2022-08-03T06:38:45.390Z,22.56
2022-08-03T06:39:45.383Z,22.70
2022-08-03T06:40:45.375Z,22.78
2022-08-03T06:41:45.363Z,22.86
2022-08-03T06:42:45.349Z,22.93
2022-08-03T06:44:03.289Z,23.02
2022-08-03T06:44:45.332Z,23.10
2022-08-03T06:45:45.316Z,23.10
2022-08-03T06:46:45.306Z,23.34
2022-08-03T06:47:45.299Z,23.26
2022-08-03T06:48:45.287Z,23.47
2022-08-03T06:50:12.709Z,23.56
2022-08-03T06:50:45.263Z,23.59
2022-08-03T06:52:03.966Z,23.64
2022-08-03T06:52:45.404Z,23.71
2022-08-03T06:53:45.235Z,23.74
2022-08-03T06:54:45.226Z,23.85
2022-08-03T06:55:45.214Z,23.94
2022-08-03T06:56:45.201Z,23.95
2022-08-03T06:57:45.193Z,24.06
2022-08-03T06:58:45.187Z,24.13
2022-08-03T07:00:09.251Z,24.19
2022-08-03T07:00:45.177Z,24.25
2022-08-03T07:01:45.216Z,24.34
2022-08-03T07:02:45.145Z,24.41
2022-08-03T07:03:52.065Z,24.55
2022-08-03T07:04:45.125Z,24.61
2022-08-03T07:05:45.113Z,24.66
2022-08-03T07:06:45.105Z,24.75
2022-08-03T07:07:45.095Z,24.86
2022-08-03T07:08:45.097Z,24.96
2022-08-03T07:09:53.198Z,24.97
2022-08-03T07:10:45.068Z,25.04
2022-08-03T07:11:45.061Z,25.14
2022-08-03T07:12:55.995Z,25.21
2022-08-03T07:13:45.043Z,25.30
2022-08-03T07:14:45.042Z,25.24
2022-08-03T07:15:55.280Z,25.39
2022-08-03T07:16:45.027Z,25.52
2022-08-03T07:17:45.003Z,25.66
2022-08-03T07:18:44.993Z,25.73
2022-08-03T07:19:44.985Z,25.91
2022-08-03T07:20:44.975Z,25.99
2022-08-03T07:21:44.971Z,26.10
2022-08-03T07:22:44.959Z,26.31
2022-08-03T07:23:44.949Z,26.49
2022-08-03T07:24:44.949Z,26.61
2022-08-03T07:25:44.935Z,26.81
2022-08-03T07:26:44.922Z,26.89
2022-08-03T07:27:48.846Z,27.03
2022-08-03T07:28:44.911Z,27.08
2022-08-03T07:29:44.900Z,27.23
2022-08-03T07:30:44.894Z,27.29
2022-08-03T07:31:44.883Z,27.38
2022-08-03T07:32:49.891Z,27.50
2022-08-03T07:33:44.868Z,27.66
2022-08-03T07:34:44.863Z,27.73
2022-08-03T07:35:44.854Z,27.75
2022-08-03T07:36:44.855Z,27.94
2022-08-03T07:37:54.225Z,27.98
2022-08-03T07:38:44.841Z,28.03
2022-08-03T07:39:44.825Z,28.13
2022-08-03T07:40:46.412Z,28.12
2022-08-03T07:41:44.812Z,28.12
2022-08-03T07:42:44.803Z,28.22
2022-08-03T07:43:44.802Z,28.31
2022-08-03T07:44:44.793Z,28.30
2022-08-03T07:45:44.786Z,28.53
2022-08-03T07:46:44.780Z,28.52
2022-08-03T07:47:53.209Z,28.68
2022-08-03T07:48:44.769Z,28.82
2022-08-03T07:49:44.854Z,29.05
2022-08-03T07:50:44.761Z,29.12
2022-08-03T07:51:44.747Z,29.24
2022-08-03T07:52:44.737Z,29.46
2022-08-03T07:53:47.408Z,29.52
2022-08-03T07:54:44.748Z,29.74
2022-08-03T07:55:44.720Z,29.86
2022-08-03T07:56:44.720Z,30.01
2022-08-03T07:57:44.711Z,30.11
2022-08-03T07:58:44.707Z,30.11
2022-08-03T07:59:49.079Z,30.27
2022-08-03T08:00:44.693Z,30.31
2022-08-03T08:01:44.720Z,30.36
2022-08-03T08:02:44.689Z,30.52
2022-08-03T08:03:52.995Z,30.67
2022-08-03T08:04:44.680Z,30.78
2022-08-03T08:05:44.675Z,30.96
2022-08-03T08:06:44.666Z,31.10
2022-08-03T08:07:44.661Z,31.23
2022-08-03T08:08:44.669Z,31.48
2022-08-03T08:09:44.654Z,31.64
2022-08-03T08:10:58.388Z,31.66
2022-08-03T08:11:44.645Z,31.79
2022-08-03T08:12:44.644Z,32.02
2022-08-03T08:13:44.640Z,32.04
2022-08-03T08:14:44.635Z,32.08
2022-08-03T08:15:44.633Z,32.09
2022-08-03T08:16:44.627Z,32.23
2022-08-03T08:17:44.640Z,32.20
2022-08-03T08:18:44.623Z,32.22
2022-08-03T08:19:51.291Z,32.35
2022-08-03T08:20:44.615Z,32.48
2022-08-03T08:21:52.904Z,32.49
2022-08-03T08:22:44.612Z,32.72
2022-08-03T08:23:48.623Z,32.83
2022-08-03T08:24:44.618Z,32.91
2022-08-03T08:25:44.603Z,33.04
2022-08-03T08:26:44.598Z,33.22
2022-08-03T08:28:29.061Z,33.44
2022-08-03T08:28:44.591Z,33.48
2022-08-03T08:29:52.579Z,33.61
2022-08-03T08:30:44.587Z,33.73
2022-08-03T08:31:53.268Z,33.84
2022-08-03T08:34:05.408Z,34.06
2022-08-03T08:34:50.071Z,34.00
2022-08-03T08:35:50.069Z,34.19
2022-08-03T08:36:50.065Z,34.28
2022-08-03T08:37:51.241Z,34.37
2022-08-03T08:38:50.060Z,34.56
2022-08-03T08:39:50.059Z,34.71
2022-08-03T08:40:50.138Z,34.63
2022-08-03T08:41:53.182Z,34.69
2022-08-03T08:42:58.910Z,34.79
2022-08-03T08:43:50.052Z,34.96
2022-08-03T08:44:50.051Z,35.07
2022-08-03T08:45:50.049Z,35.39
2022-08-03T08:46:50.049Z,35.44
2022-08-03T08:47:51.396Z,35.63
2022-08-03T08:48:50.045Z,35.84
2022-08-03T08:50:08.985Z,36.00
2022-08-03T08:50:50.049Z,36.24
2022-08-03T08:51:59.413Z,36.36
2022-08-03T08:52:50.039Z,36.48
2022-08-03T08:53:50.043Z,36.44
2022-08-03T08:54:50.756Z,36.53
2022-08-03T08:55:59.445Z,36.54
2022-08-03T08:56:50.041Z,36.72
2022-08-03T08:57:50.043Z,36.72
2022-08-03T08:58:50.041Z,36.89
2022-08-03T08:59:51.591Z,37.25
2022-08-03T09:00:50.072Z,37.50
2022-08-03T09:01:50.037Z,37.61
2022-08-03T09:02:50.040Z,37.72
2022-08-03T09:03:50.036Z,37.79
2022-08-03T09:04:50.040Z,37.67
2022-08-03T09:05:56.574Z,37.64
2022-08-03T09:07:10.532Z,37.64
2022-08-03T09:07:50.040Z,37.53
2022-08-03T09:08:50.043Z,37.58
2022-08-03T09:10:10.948Z,37.67
2022-08-03T09:10:50.039Z,37.80
2022-08-03T09:11:57.609Z,37.94
2022-08-03T09:12:50.044Z,38.09
2022-08-03T09:13:50.042Z,38.05
2022-08-03T09:15:14.769Z,38.13
2022-08-03T09:16:00.625Z,38.25
2022-08-03T09:16:50.043Z,38.28
2022-08-03T09:17:51.343Z,38.17
2022-08-03T09:18:50.038Z,37.92
2022-08-03T09:20:03.416Z,37.95
2022-08-03T09:20:50.042Z,37.92
2022-08-03T09:21:50.045Z,38.13
2022-08-03T09:22:50.042Z,38.25
2022-08-03T09:24:02.196Z,38.53
2022-08-03T09:25:08.702Z,38.75
2022-08-03T09:25:50.045Z,38.98
2022-08-03T09:26:50.041Z,39.29
2022-08-03T09:27:50.044Z,39.33
2022-08-03T09:28:59.782Z,39.48
2022-08-03T09:29:50.050Z,39.52
2022-08-03T09:30:50.050Z,39.56
2022-08-03T09:31:50.050Z,39.61
2022-08-03T09:32:50.054Z,39.67
2022-08-03T09:33:50.053Z,39.79
2022-08-03T09:34:50.051Z,39.95
2022-08-03T09:35:54.487Z,40.20
2022-08-03T09:36:50.055Z,40.54
2022-08-03T09:38:08.588Z,40.66
2022-08-03T09:38:50.306Z,40.89
2022-08-03T09:39:50.054Z,41.10
2022-08-03T09:40:50.090Z,41.11
2022-08-03T09:41:50.058Z,41.15
2022-08-03T09:42:50.055Z,41.24
2022-08-03T09:43:50.064Z,41.24
2022-08-03T09:44:50.071Z,41.39
2022-08-03T09:45:50.063Z,41.58
2022-08-03T09:46:50.277Z,41.73
2022-08-03T09:47:50.069Z,41.86
2022-08-03T09:48:50.067Z,41.99
2022-08-03T09:49:50.069Z,42.14
2022-08-03T09:50:56.862Z,42.20
2022-08-03T09:52:31.526Z,42.15
2022-08-03T09:52:52.744Z,42.05
2022-08-03T09:53:58.555Z,41.93
2022-08-03T09:54:50.081Z,41.76
2022-08-03T09:56:35.256Z,41.60
2022-08-03T09:56:50.083Z,41.53
2022-08-03T09:57:50.091Z,41.67
2022-08-03T09:58:50.093Z,41.88
2022-08-03T09:59:50.096Z,42.00
2022-08-03T10:00:50.137Z,42.34
2022-08-03T10:01:50.095Z,42.52
2022-08-03T10:02:50.097Z,42.73
2022-08-03T10:04:04.099Z,42.73
2022-08-03T10:04:50.105Z,42.62
2022-08-03T10:05:50.107Z,42.52
2022-08-03T10:06:50.109Z,42.44
2022-08-03T10:07:50.114Z,42.53
2022-08-03T10:08:50.119Z,42.73
2022-08-03T10:09:50.118Z,42.81
2022-08-03T10:10:50.126Z,42.82
2022-08-03T10:11:50.125Z,42.86
2022-08-03T10:12:50.128Z,42.97
2022-08-03T10:13:50.127Z,42.84
2022-08-03T10:14:50.140Z,42.46
2022-08-03T10:16:22.022Z,42.14
2022-08-03T10:16:50.153Z,42.03
2022-08-03T10:17:50.141Z,41.83
2022-08-03T10:18:50.143Z,41.70
2022-08-03T10:19:50.147Z,41.84
2022-08-03T10:20:50.151Z,41.98
2022-08-03T10:21:50.169Z,42.14
2022-08-03T10:22:50.157Z,42.18
2022-08-03T10:23:50.160Z,42.15
2022-08-03T10:24:50.161Z,41.86
2022-08-03T10:25:50.166Z,41.71
2022-08-03T10:26:50.346Z,41.64
2022-08-03T10:27:50.173Z,41.67
2022-08-03T10:28:50.173Z,41.73
2022-08-03T10:29:50.177Z,41.46
2022-08-03T10:30:50.178Z,41.46
2022-08-03T10:31:54.760Z,41.57
2022-08-03T10:32:50.183Z,41.83
2022-08-03T10:33:52.870Z,42.18
2022-08-03T10:34:50.190Z,42.28
2022-08-03T10:35:50.192Z,42.44
2022-08-03T10:36:50.195Z,42.51
2022-08-03T10:37:57.122Z,42.49
2022-08-03T10:38:50.198Z,42.34
2022-08-03T10:39:50.202Z,41.95
2022-08-03T10:40:52.669Z,41.81
2022-08-03T10:41:50.206Z,41.70
2022-08-03T10:42:50.220Z,41.88
2022-08-03T10:43:50.214Z,41.99
2022-08-03T10:44:50.220Z,42.05
2022-08-03T10:45:50.223Z,42.03
2022-08-03T10:46:50.221Z,42.18
2022-08-03T10:47:50.226Z,42.32
2022-08-03T10:48:50.226Z,42.41
2022-08-03T10:49:50.327Z,42.47
2022-08-03T10:50:50.236Z,42.59
2022-08-03T10:51:52.929Z,42.68
2022-08-03T10:52:50.239Z,42.89
2022-08-03T10:53:55.526Z,42.94
2022-08-03T10:54:50.246Z,43.18
2022-08-03T10:55:50.253Z,43.28
2022-08-03T10:56:50.504Z,43.34
2022-08-03T10:57:50.252Z,43.41
2022-08-03T10:58:57.239Z,43.56
2022-08-03T10:59:50.260Z,43.81
2022-08-03T11:00:50.314Z,43.97
2022-08-03T11:02:00.802Z,44.13
2022-08-03T11:02:50.271Z,44.13
2022-08-03T11:03:50.274Z,44.02
2022-08-03T11:04:50.280Z,43.99
2022-08-03T11:05:50.279Z,43.87
2022-08-03T11:06:50.287Z,43.73
2022-08-03T11:07:54.611Z,43.88
2022-08-03T11:08:50.294Z,43.99
2022-08-03T11:09:50.313Z,44.23
2022-08-03T11:10:50.299Z,44.29
2022-08-03T11:11:50.308Z,44.56
2022-08-03T11:12:50.311Z,44.52
2022-08-03T11:13:50.311Z,44.53
2022-08-03T11:14:50.312Z,44.32
2022-08-03T11:15:50.320Z,44.16
2022-08-03T11:16:50.323Z,44.03
2022-08-03T11:17:56.007Z,43.82
2022-08-03T11:18:50.336Z,43.77
2022-08-03T11:19:56.681Z,43.69
2022-08-03T11:20:50.341Z,43.63
2022-08-03T11:21:50.346Z,43.53
2022-08-03T11:22:50.349Z,43.35
2022-08-03T11:24:04.810Z,43.09
2022-08-03T11:24:50.358Z,42.87
2022-08-03T11:25:55.052Z,42.75
2022-08-03T11:26:50.363Z,42.75
2022-08-03T11:27:50.365Z,42.62
2022-08-03T11:28:50.372Z,42.68
2022-08-03T11:29:50.377Z,42.70
2022-08-03T11:30:50.375Z,42.74
2022-08-03T11:31:51.678Z,42.63
2022-08-03T11:32:50.388Z,42.52
2022-08-03T11:33:50.389Z,42.75
2022-08-03T11:34:50.390Z,42.82
2022-08-03T11:35:50.390Z,42.92
2022-08-03T11:36:50.394Z,43.27
2022-08-03T11:38:01.474Z,43.49
2022-08-03T11:38:50.403Z,43.58
2022-08-03T11:39:50.409Z,43.76
2022-08-03T11:40:50.409Z,43.95
2022-08-03T11:41:50.416Z,44.18
2022-08-03T11:42:50.414Z,44.25
2022-08-03T11:43:50.418Z,44.50
2022-08-03T11:44:50.420Z,44.64
2022-08-03T11:45:50.426Z,44.94
2022-08-03T11:46:50.428Z,44.95
2022-08-03T11:47:51.472Z,45.23
2022-08-03T11:48:50.437Z,45.35
2022-08-03T11:49:50.443Z,45.58
2022-08-03T11:50:50.453Z,45.71
2022-08-03T11:51:50.445Z,45.67
2022-08-03T11:52:50.456Z,45.70
2022-08-03T11:53:50.454Z,45.83
2022-08-03T11:54:50.457Z,46.08
2022-08-03T11:55:50.463Z,46.20
2022-08-03T11:56:50.472Z,46.47
2022-08-03T11:59:01.609Z,46.44
2022-08-03T11:59:12.827Z,46.49
2022-08-03T11:59:50.480Z,46.53
2022-08-03T12:00:50.486Z,46.59
2022-08-03T12:01:50.490Z,46.32
2022-08-03T12:02:50.532Z,46.39
2022-08-03T12:03:50.497Z,46.35
2022-08-03T12:04:50.504Z,46.24
2022-08-03T12:05:51.767Z,46.12
2022-08-03T12:06:51.181Z,45.89
2022-08-03T12:08:03.273Z,45.89
2022-08-03T12:08:50.521Z,45.97
2022-08-03T12:09:50.526Z,46.01
2022-08-03T12:10:50.530Z,45.89
2022-08-03T12:11:59.824Z,45.55
2022-08-03T12:12:50.538Z,45.29
2022-08-03T12:14:44.892Z,45.04
2022-08-03T12:14:52.506Z,44.86
2022-08-03T12:15:50.555Z,44.73
2022-08-03T12:16:50.554Z,44.53
2022-08-03T12:17:52.779Z,44.42
2022-08-03T12:18:50.565Z,44.41
2022-08-03T12:19:50.569Z,44.42
2022-08-03T12:20:50.572Z,44.35
2022-08-03T12:21:57.349Z,44.42
2022-08-03T12:22:50.583Z,44.77
2022-08-03T12:23:50.583Z,45.05
2022-08-03T12:24:50.593Z,45.16
2022-08-03T12:25:50.595Z,45.35
2022-08-03T12:26:54.493Z,45.37
2022-08-03T12:27:50.601Z,45.47
2022-08-03T12:28:50.603Z,45.55
2022-08-03T12:29:58.542Z,45.58
2022-08-03T12:30:50.612Z,45.37
2022-08-03T12:31:50.617Z,45.11
2022-08-03T12:32:50.619Z,44.96
2022-08-03T12:33:50.621Z,45.14
2022-08-03T12:34:50.641Z,45.33
2022-08-03T12:35:52.331Z,45.49
2022-08-03T12:36:50.635Z,45.69
2022-08-03T12:37:50.637Z,45.90
2022-08-03T12:38:50.640Z,46.25
2022-08-03T12:40:02.290Z,46.55
2022-08-03T12:40:50.656Z,46.85
2022-08-03T12:41:50.652Z,47.07
2022-08-03T12:42:50.672Z,47.41
2022-08-03T12:43:50.677Z,47.58
2022-08-03T12:44:50.664Z,47.53
2022-08-03T12:45:50.674Z,47.76
2022-08-03T12:46:50.698Z,47.89
2022-08-03T12:47:50.677Z,47.82
2022-08-03T12:48:50.682Z,47.77
2022-08-03T12:49:50.695Z,47.58
2022-08-03T12:50:53.572Z,47.51
2022-08-03T12:51:50.698Z,47.54
2022-08-03T12:52:50.702Z,47.54
2022-08-03T12:53:50.701Z,47.54
2022-08-03T12:54:50.710Z,47.77